Archival Weather

Chicago O'Hare International

Chicago, Illinois (KORD)

Report from: Friday, May 26, 2023 3:51 AM CDT
Current time: Friday, June 21, 2024 8:03 PM CDT

Current weather – Weather history – Daily summaries
Weather forecast

Temperature9.4°C (48.9°F)
Wind chill7.7°C (45.9°F)
Dew point3.3°C (37.9°F)
Winds 6 kts (3.1 m/s, 6.9 mph) Northeast (40°)
Visibility10 mi. (16.1 km)
Clouds Few clouds 25,000 ft. (7,620 m)
Altimeter30.30 in.Hg (1026 mB)
Relative humidity66 %
Density altitude-993 ft. (-303 m)
Sea-level pressure102.6 kPa (1026 mB, 30.30 in.Hg)
Remarks Automated weather observing station with precipitation discriminator
Pressure rising more quickly
Flight conditions Visual Meteorological Conditions
Raw dataKORD 260851Z 04006KT 10SM FEW250 09/03 A3030 RMK AO2 SLP262 T00940033 53007
An error has occurred. This application may no longer respond until reloaded. Reload 🗙